createdAt,value
2017-06-18T00:02:13.676Z,21.27
2017-06-18T00:04:41.181Z,20.17
2017-06-18T00:07:08.686Z,26.40
2017-06-18T00:09:36.209Z,28.77
2017-06-18T00:12:03.720Z,25.87
2017-06-18T00:14:31.206Z,22.07
2017-06-18T00:16:58.708Z,22.43
2017-06-18T00:19:26.955Z,21.13
2017-06-18T00:21:54.515Z,20.40
2017-06-18T00:24:22.075Z,19.27
2017-06-18T00:26:49.631Z,19.27
2017-06-18T00:29:17.102Z,20.37
2017-06-18T00:31:45.334Z,21.57
2017-06-18T00:34:12.854Z,18.20
2017-06-18T00:36:40.379Z,24.27
2017-06-18T00:39:07.902Z,19.67
2017-06-18T00:41:35.395Z,21.63
2017-06-18T00:44:02.963Z,20.30
2017-06-18T00:46:30.516Z,23.10
2017-06-18T00:48:58.076Z,20.00
2017-06-18T00:51:25.542Z,20.30
2017-06-18T00:53:53.919Z,22.20
2017-06-18T00:56:22.158Z,18.93
2017-06-18T00:58:49.627Z,22.00
2017-06-18T01:01:17.105Z,22.20
2017-06-18T01:03:44.650Z,20.30
2017-06-18T01:06:12.206Z,20.90
2017-06-18T01:08:39.771Z,19.93
2017-06-18T01:11:07.328Z,17.87
2017-06-18T01:13:34.828Z,20.90
2017-06-18T01:16:02.339Z,23.40
2017-06-18T01:18:29.812Z,15.27
2017-06-18T01:20:57.354Z,17.80
2017-06-18T01:23:24.915Z,18.90
2017-06-18T01:25:52.379Z,18.00
2017-06-18T01:28:20.646Z,21.37
2017-06-18T01:30:48.206Z,21.27
2017-06-18T01:33:15.766Z,18.33
2017-06-18T01:35:43.322Z,20.10
2017-06-18T01:38:10.899Z,17.33
2017-06-18T01:40:38.446Z,18.13
2017-06-18T01:43:06.004Z,16.93
2017-06-18T01:45:33.575Z,17.53
2017-06-18T01:48:01.802Z,19.00
2017-06-18T01:50:29.286Z,23.70
2017-06-18T01:52:56.892Z,18.73
2017-06-18T01:55:24.407Z,20.97
2017-06-18T01:57:51.887Z,20.03
2017-06-18T02:00:20.127Z,17.80
2017-06-18T02:02:47.698Z,19.13
2017-06-18T02:05:15.262Z,20.43
2017-06-18T02:07:42.825Z,19.90
2017-06-18T02:10:10.370Z,18.47
2017-06-18T02:12:37.838Z,19.43
2017-06-18T02:15:05.310Z,20.67
2017-06-18T02:17:33.562Z,19.97
2017-06-18T02:20:01.142Z,19.00
2017-06-18T02:22:29.395Z,20.70
2017-06-18T02:24:56.882Z,18.77
2017-06-18T02:27:24.383Z,22.37
2017-06-18T02:29:51.879Z,19.10
2017-06-18T02:32:20.114Z,23.00
2017-06-18T02:34:47.603Z,21.37
2017-06-18T02:37:15.073Z,22.83
2017-06-18T02:39:43.334Z,20.53
2017-06-18T02:42:10.895Z,19.27
2017-06-18T02:44:38.450Z,18.30
2017-06-18T02:47:06.017Z,18.57
2017-06-18T02:49:33.590Z,22.03
2017-06-18T02:52:01.129Z,18.50
2017-06-18T02:54:28.615Z,24.20
2017-06-18T02:56:56.154Z,22.93
2017-06-18T02:59:23.704Z,22.13
2017-06-18T03:01:51.266Z,24.10
2017-06-18T03:04:18.726Z,19.50
2017-06-18T03:06:46.991Z,26.03
2017-06-18T03:09:14.608Z,19.47
2017-06-18T03:11:42.118Z,19.00
2017-06-18T03:14:09.667Z,21.23
2017-06-18T03:16:37.230Z,22.47
2017-06-18T03:19:04.702Z,22.00
2017-06-18T03:21:38.715Z,22.23
2017-06-18T03:24:06.974Z,26.70
2017-06-18T03:26:34.527Z,22.47
2017-06-18T03:29:02.087Z,20.50
2017-06-18T03:31:29.643Z,22.20
2017-06-18T03:33:57.202Z,21.00
2017-06-18T03:36:24.764Z,19.27
2017-06-18T03:38:52.327Z,21.97
2017-06-18T03:41:19.782Z,15.30
2017-06-18T03:43:47.266Z,16.50
2017-06-18T03:46:14.791Z,18.00
2017-06-18T03:48:42.351Z,18.90
2017-06-18T03:51:09.815Z,16.70
2017-06-18T03:53:37.406Z,16.30
2017-06-18T03:56:04.878Z,17.10
2017-06-18T03:58:32.461Z,17.10
2017-06-18T04:00:59.914Z,19.90
2017-06-18T04:03:27.383Z,16.47
2017-06-18T04:05:54.951Z,16.23
2017-06-18T04:08:22.515Z,16.57
2017-06-18T04:10:50.074Z,19.27
2017-06-18T04:13:17.634Z,22.87
2017-06-18T04:15:45.191Z,17.97
2017-06-18T04:18:12.750Z,17.70
2017-06-18T04:20:40.219Z,15.30
2017-06-18T04:23:09.511Z,21.03
2017-06-18T04:25:37.001Z,18.83
2017-06-18T04:28:04.505Z,17.23
2017-06-18T04:30:32.078Z,21.77
2017-06-18T04:32:59.638Z,17.83
2017-06-18T04:35:27.199Z,23.53
2017-06-18T04:37:54.662Z,24.50
2017-06-18T04:40:22.894Z,22.03
2017-06-18T04:42:50.382Z,22.30
2017-06-18T04:45:17.851Z,25.20
2017-06-18T04:47:47.095Z,24.90
2017-06-18T04:50:14.598Z,22.37
2017-06-18T04:52:42.158Z,23.60
2017-06-18T04:55:09.723Z,29.07
2017-06-18T04:57:37.192Z,23.83
2017-06-18T05:00:05.455Z,21.97
2017-06-18T05:02:33.010Z,26.10
2017-06-18T05:05:00.514Z,30.57
2017-06-18T05:07:28.023Z,25.60
2017-06-18T05:09:55.490Z,25.17
2017-06-18T05:12:23.754Z,25.73
2017-06-18T05:14:51.312Z,26.90
2017-06-18T05:17:18.787Z,28.30
2017-06-18T05:19:47.053Z,41.27
2017-06-18T05:22:14.602Z,24.90
2017-06-18T05:24:42.158Z,26.90
2017-06-18T05:27:09.633Z,28.17
2017-06-18T05:29:37.948Z,26.43
2017-06-18T05:32:05.418Z,30.77
2017-06-18T05:34:32.906Z,27.63
2017-06-18T05:37:00.370Z,27.57
2017-06-18T05:39:28.612Z,27.40
2017-06-18T05:41:56.085Z,30.50
2017-06-18T05:44:23.566Z,24.33
2017-06-18T05:46:51.035Z,32.07
2017-06-18T05:49:18.495Z,28.90
2017-06-18T05:51:45.973Z,29.27
2017-06-18T05:54:13.478Z,33.50
2017-06-18T05:56:40.943Z,32.63
2017-06-18T05:59:08.500Z,27.50
2017-06-18T06:01:35.974Z,31.93
2017-06-18T06:04:04.236Z,28.90
2017-06-18T06:06:31.794Z,35.20
2017-06-18T06:08:59.299Z,35.27
2017-06-18T06:11:26.798Z,31.10
2017-06-18T06:13:54.359Z,27.10
2017-06-18T06:16:21.831Z,34.00
2017-06-18T06:18:51.075Z,30.97
2017-06-18T06:21:18.591Z,26.20
2017-06-18T06:23:46.847Z,27.73
2017-06-18T06:26:14.406Z,28.13
2017-06-18T06:28:41.962Z,27.37
2017-06-18T06:31:09.438Z,36.30
2017-06-18T06:33:37.673Z,32.13
2017-06-18T06:36:05.150Z,25.00
2017-06-18T06:38:32.734Z,29.27
2017-06-18T06:41:04.023Z,25.10
2017-06-18T06:43:34.782Z,28.80
2017-06-18T06:46:02.763Z,32.13
2017-06-18T06:48:30.320Z,23.43
2017-06-18T06:50:57.794Z,25.40
2017-06-18T06:53:26.058Z,22.77
2017-06-18T06:55:53.618Z,26.77
2017-06-18T06:58:21.203Z,22.00
2017-06-18T07:00:48.731Z,25.60
2017-06-18T07:03:16.286Z,23.30
2017-06-18T07:05:43.751Z,27.00
2017-06-18T07:08:12.018Z,22.27
2017-06-18T07:10:39.590Z,22.53
2017-06-18T07:13:07.823Z,19.90
2017-06-18T07:15:35.312Z,21.23
2017-06-18T07:18:02.823Z,24.40
2017-06-18T07:20:30.290Z,33.13
2017-06-18T07:22:57.781Z,21.07
2017-06-18T07:25:25.246Z,20.27
2017-06-18T07:27:53.516Z,34.67
2017-06-18T07:30:21.067Z,58.67
2017-06-18T07:32:48.631Z,46.07
2017-06-18T07:35:16.186Z,54.43
2017-06-18T07:37:43.759Z,66.27
2017-06-18T07:40:12.038Z,48.80
2017-06-18T07:42:39.583Z,40.63
2017-06-18T07:45:07.164Z,35.57
2017-06-18T07:47:35.431Z,29.00
2017-06-18T07:50:03.691Z,33.53
2017-06-18T07:52:31.159Z,24.67
2017-06-18T07:54:59.390Z,23.63
2017-06-18T07:57:26.879Z,24.20
2017-06-18T07:59:54.435Z,26.93
2017-06-18T08:02:22.000Z,20.77
2017-06-18T08:04:49.459Z,20.13
2017-06-18T08:07:17.921Z,22.73
2017-06-18T08:09:45.375Z,25.53
2017-06-18T08:12:13.050Z,21.23
2017-06-18T08:14:40.515Z,22.53
2017-06-18T08:17:08.066Z,22.87
2017-06-18T08:19:35.646Z,22.90
2017-06-18T08:22:03.874Z,21.10
2017-06-18T08:24:31.462Z,22.23
2017-06-18T08:26:58.935Z,21.23
2017-06-18T08:29:27.198Z,20.30
2017-06-18T08:31:54.658Z,20.20
2017-06-18T08:34:22.891Z,18.73
2017-06-18T08:36:50.382Z,21.47
2017-06-18T08:39:17.850Z,20.27
2017-06-18T08:41:46.119Z,17.57
2017-06-18T08:44:13.579Z,14.93
2017-06-18T08:46:41.818Z,18.43
2017-06-18T08:49:09.402Z,17.60
2017-06-18T08:51:36.890Z,17.10
2017-06-18T08:54:04.420Z,15.90
2017-06-18T08:56:31.974Z,15.13
2017-06-18T08:58:59.534Z,14.80
2017-06-18T09:01:27.256Z,15.70
2017-06-18T09:03:54.719Z,18.53
2017-06-18T09:06:22.214Z,16.53
2017-06-18T09:08:49.690Z,12.43
2017-06-18T09:11:17.943Z,18.67
2017-06-18T09:13:45.506Z,14.60
2017-06-18T09:16:13.067Z,18.47
2017-06-18T09:18:40.619Z,13.80
2017-06-18T09:21:08.079Z,15.03
2017-06-18T09:23:35.668Z,10.13
2017-06-18T09:26:03.148Z,15.27
2017-06-18T09:28:30.839Z,13.23
2017-06-18T09:30:58.298Z,8.90
2017-06-18T09:33:25.766Z,12.40
2017-06-18T09:35:53.222Z,14.83
2017-06-18T09:38:20.826Z,14.53
2017-06-18T09:40:48.282Z,7.60
2017-06-18T09:43:15.856Z,12.67
2017-06-18T09:45:43.354Z,10.00
2017-06-18T09:48:10.818Z,12.83
2017-06-18T09:50:38.291Z,9.43
2017-06-18T09:53:06.543Z,10.30
2017-06-18T09:55:34.059Z,7.47
2017-06-18T09:58:01.562Z,8.60
2017-06-18T10:00:29.023Z,12.30
2017-06-18T10:02:56.614Z,10.80
2017-06-18T10:05:24.191Z,6.90
2017-06-18T10:07:51.650Z,8.83
2017-06-18T10:10:19.150Z,9.50
2017-06-18T10:12:46.708Z,10.07
2017-06-18T10:15:14.271Z,10.90
2017-06-18T10:17:41.738Z,17.43
2017-06-18T10:20:09.958Z,9.20
2017-06-18T10:22:37.419Z,8.17
2017-06-18T10:25:04.914Z,11.40
2017-06-18T10:27:32.379Z,12.97
2017-06-18T10:30:00.638Z,7.77
2017-06-18T10:32:28.111Z,12.20
2017-06-18T10:34:56.370Z,10.53
2017-06-18T10:37:23.827Z,7.77
2017-06-18T10:39:51.386Z,26.23
2017-06-18T10:42:18.946Z,28.97
2017-06-18T10:44:46.402Z,24.70
2017-06-18T10:47:14.039Z,19.43
2017-06-18T10:49:41.522Z,13.40
2017-06-18T10:52:09.083Z,16.23
2017-06-18T10:54:36.571Z,14.73
2017-06-18T10:57:04.101Z,12.23
2017-06-18T10:59:31.654Z,10.43
2017-06-18T11:01:59.122Z,9.10
2017-06-18T11:04:27.342Z,6.60
2017-06-18T11:06:54.807Z,8.63
2017-06-18T11:09:22.262Z,8.10
2017-06-18T11:11:49.731Z,10.07
2017-06-18T11:14:17.190Z,9.00
2017-06-18T11:16:44.643Z,10.90
2017-06-18T11:19:12.127Z,9.67
2017-06-18T11:21:39.741Z,5.20
2017-06-18T11:24:07.248Z,7.10
2017-06-18T11:26:35.610Z,15.90
2017-06-18T11:29:03.078Z,8.00
2017-06-18T11:31:30.591Z,4.33
2017-06-18T11:33:58.046Z,10.30
2017-06-18T11:36:25.519Z,11.10
2017-06-18T11:38:53.003Z,10.60
2017-06-18T11:41:20.476Z,11.27
2017-06-18T11:43:48.703Z,10.80
2017-06-18T11:46:16.190Z,8.17
2017-06-18T11:48:43.661Z,8.73
2017-06-18T11:51:11.907Z,11.57
2017-06-18T11:53:39.386Z,7.00
2017-06-18T11:56:06.838Z,6.87
2017-06-18T11:58:34.395Z,7.23
2017-06-18T12:01:01.951Z,15.47
2017-06-18T12:03:29.511Z,13.53
2017-06-18T12:05:56.966Z,11.80
2017-06-18T12:08:24.447Z,11.80
2017-06-18T12:10:52.674Z,8.20
2017-06-18T12:13:20.155Z,7.87
2017-06-18T12:15:47.622Z,9.07
2017-06-18T12:18:15.078Z,8.27
2017-06-18T12:20:42.526Z,5.70
2017-06-18T12:23:09.999Z,8.23
2017-06-18T12:25:38.214Z,9.30
2017-06-18T12:28:05.682Z,11.27
2017-06-18T12:30:33.134Z,8.93
2017-06-18T12:33:00.626Z,7.27
2017-06-18T12:35:28.086Z,9.47
2017-06-18T12:37:55.706Z,8.90
2017-06-18T12:40:23.246Z,9.70
2017-06-18T12:42:50.759Z,9.40
2017-06-18T12:45:18.222Z,8.40
2017-06-18T12:47:45.690Z,8.20
2017-06-18T12:50:13.922Z,8.10
2017-06-18T12:52:41.382Z,15.27
2017-06-18T12:55:08.968Z,8.77
2017-06-18T12:57:36.424Z,8.37
2017-06-18T13:00:03.978Z,15.13
2017-06-18T13:02:31.454Z,8.40
2017-06-18T13:04:58.924Z,10.80
2017-06-18T13:07:26.447Z,8.60
2017-06-18T13:09:54.027Z,7.30
2017-06-18T13:12:22.333Z,8.30
2017-06-18T13:14:49.786Z,6.80
2017-06-18T13:17:17.306Z,6.30
2017-06-18T13:20:12.048Z,7.37
2017-06-18T13:22:39.510Z,5.60
2017-06-18T13:25:06.970Z,5.73
2017-06-18T13:27:34.468Z,4.97
2017-06-18T13:30:01.922Z,5.20
2017-06-18T13:32:29.386Z,3.83
2017-06-18T13:34:57.655Z,6.00
2017-06-18T13:37:25.111Z,5.27
2017-06-18T13:39:52.578Z,5.60
2017-06-18T13:42:20.868Z,8.47
2017-06-18T13:44:49.080Z,5.73
2017-06-18T13:47:16.571Z,5.20
2017-06-18T13:49:44.823Z,6.70
2017-06-18T13:52:12.279Z,5.77
2017-06-18T13:54:39.735Z,4.50
2017-06-18T13:57:07.214Z,6.23
2017-06-18T13:59:34.794Z,6.47
2017-06-18T14:02:03.054Z,5.27
2017-06-18T14:04:30.615Z,6.20
2017-06-18T14:06:58.074Z,9.23
2017-06-18T14:09:25.622Z,3.73
2017-06-18T14:11:53.184Z,6.17
2017-06-18T14:14:20.742Z,2.73
2017-06-18T14:16:48.200Z,5.37
2017-06-18T14:19:15.670Z,3.70
2017-06-18T14:21:43.943Z,4.80
2017-06-18T14:24:11.490Z,8.53
2017-06-18T14:26:39.050Z,6.63
2017-06-18T14:29:06.520Z,3.53
2017-06-18T14:31:33.976Z,7.00
2017-06-18T14:34:01.531Z,5.20
2017-06-18T14:36:28.974Z,4.40
2017-06-18T14:38:57.250Z,5.23
2017-06-18T14:41:24.810Z,4.03
2017-06-18T14:43:52.267Z,3.80
2017-06-18T14:46:19.722Z,3.20
2017-06-18T14:48:47.282Z,3.50
2017-06-18T14:51:14.739Z,5.17
2017-06-18T14:53:42.194Z,5.13
2017-06-18T14:56:09.655Z,5.30
2017-06-18T14:58:37.214Z,5.37
2017-06-18T15:01:04.783Z,6.53
2017-06-18T15:03:33.044Z,3.93
2017-06-18T15:06:00.498Z,4.13
2017-06-18T15:08:28.902Z,3.50
2017-06-18T15:10:57.261Z,5.10
2017-06-18T15:13:25.494Z,3.00
2017-06-18T15:15:54.023Z,3.57
2017-06-18T15:18:21.751Z,3.03
2017-06-18T15:20:49.234Z,5.83
2017-06-18T15:23:17.187Z,3.43
2017-06-18T15:25:44.767Z,3.50
2017-06-18T15:28:12.228Z,3.47
2017-06-18T15:30:39.682Z,4.33
2017-06-18T15:33:07.161Z,8.13
2017-06-18T15:35:35.466Z,5.73
2017-06-18T15:38:02.970Z,4.53
2017-06-18T15:40:30.482Z,5.77
2017-06-18T15:42:57.942Z,4.77
2017-06-18T15:45:25.396Z,4.93
2017-06-18T15:47:52.890Z,3.90
2017-06-18T15:50:20.347Z,4.90
2017-06-18T15:52:47.816Z,7.47
2017-06-18T15:55:16.051Z,7.80
2017-06-18T15:57:43.506Z,8.20
2017-06-18T16:00:10.966Z,6.93
2017-06-18T16:02:38.482Z,6.93
2017-06-18T16:05:06.065Z,13.03
2017-06-18T16:07:33.527Z,38.43
2017-06-18T16:10:01.026Z,49.53
2017-06-18T16:12:28.583Z,44.60
2017-06-18T16:14:56.038Z,33.27
2017-06-18T16:17:23.611Z,73.23
2017-06-18T16:19:51.159Z,52.13
2017-06-18T16:22:18.719Z,51.47
2017-06-18T16:24:46.274Z,33.33
2017-06-18T16:27:13.830Z,31.43
2017-06-18T16:29:41.367Z,31.03
2017-06-18T16:32:08.846Z,28.90
2017-06-18T16:34:36.407Z,26.20
2017-06-18T16:37:03.966Z,34.50
2017-06-18T16:39:31.538Z,18.60
2017-06-18T16:41:59.090Z,20.30
2017-06-18T16:44:27.318Z,16.20
2017-06-18T16:46:54.812Z,9.20
2017-06-18T16:49:22.270Z,8.67
2017-06-18T16:51:49.722Z,9.90
2017-06-18T16:54:17.191Z,9.30
2017-06-18T16:56:45.466Z,7.67
2017-06-18T16:59:13.018Z,10.20
2017-06-18T17:01:40.483Z,6.53
2017-06-18T17:04:08.702Z,7.03
2017-06-18T17:06:36.216Z,7.43
2017-06-18T17:09:03.677Z,5.70
2017-06-18T17:11:31.934Z,4.90
2017-06-18T17:13:59.494Z,4.20
2017-06-18T17:16:27.157Z,6.60
2017-06-18T17:18:54.611Z,5.20
2017-06-18T17:21:27.822Z,6.73
2017-06-18T17:23:56.090Z,5.73
2017-06-18T17:26:24.353Z,5.93
2017-06-18T17:28:51.911Z,4.13
2017-06-18T17:31:19.375Z,5.13
2017-06-18T17:33:46.935Z,3.23
2017-06-18T17:36:14.384Z,4.07
2017-06-18T17:38:41.902Z,3.63
2017-06-18T17:41:09.422Z,4.50
2017-06-18T17:43:37.780Z,3.90
2017-06-18T17:46:05.674Z,3.23
2017-06-18T17:48:33.203Z,3.90
2017-06-18T17:51:00.658Z,3.00
2017-06-18T17:53:28.122Z,5.10
2017-06-18T17:55:55.587Z,2.37
2017-06-18T17:58:23.854Z,3.47
2017-06-18T18:00:51.403Z,3.63
2017-06-18T18:03:18.875Z,4.43
2017-06-18T18:05:47.156Z,6.80
2017-06-18T18:08:16.411Z,6.60
2017-06-18T18:10:43.890Z,9.60
2017-06-18T18:13:11.455Z,7.87
2017-06-18T18:15:38.910Z,4.20
2017-06-18T18:18:06.378Z,7.40
2017-06-18T18:20:33.839Z,4.20
2017-06-18T18:23:02.072Z,6.80
2017-06-18T18:25:29.554Z,8.80
2017-06-18T18:27:57.024Z,5.60
2017-06-18T18:30:25.286Z,3.70
2017-06-18T18:32:52.751Z,4.87
2017-06-18T18:35:20.993Z,4.10
2017-06-18T18:37:48.458Z,18.10
2017-06-18T18:40:15.930Z,8.83
2017-06-18T18:42:43.506Z,11.30
2017-06-18T18:45:11.726Z,6.37
2017-06-18T18:47:40.226Z,2.93
2017-06-18T18:50:07.696Z,7.20
2017-06-18T18:52:35.167Z,6.40
2017-06-18T18:55:02.731Z,4.17
2017-06-18T18:57:31.974Z,3.80
2017-06-18T18:59:59.552Z,3.80
2017-06-18T19:02:27.295Z,5.77
2017-06-18T19:04:55.354Z,4.40
2017-06-18T19:07:23.015Z,4.77
2017-06-18T19:09:50.843Z,2.73
2017-06-18T19:12:18.315Z,3.33
2017-06-18T19:14:45.800Z,4.00
2017-06-18T19:17:13.271Z,3.50
2017-06-18T19:19:40.778Z,5.00
2017-06-18T19:22:09.016Z,5.03
2017-06-18T19:24:36.539Z,12.23
2017-06-18T19:27:04.006Z,5.70
2017-06-18T19:29:31.539Z,3.30
2017-06-18T19:31:59.049Z,4.60
2017-06-18T19:34:26.510Z,17.83
2017-06-18T19:36:54.002Z,9.37
2017-06-18T19:39:22.267Z,4.10
2017-06-18T19:41:49.731Z,7.83
2017-06-18T19:44:17.954Z,7.27
2017-06-18T19:46:45.439Z,8.73
2017-06-18T19:49:12.913Z,12.70
2017-06-18T19:51:40.379Z,8.13
2017-06-18T19:54:08.639Z,10.00
2017-06-18T19:56:36.107Z,8.17
2017-06-18T19:59:03.619Z,11.03
2017-06-18T20:01:31.156Z,7.90
2017-06-18T20:03:58.618Z,7.23
2017-06-18T20:06:26.096Z,9.83
2017-06-18T20:08:53.573Z,7.33
2017-06-18T20:11:22.041Z,4.17
2017-06-18T20:13:49.916Z,3.97
2017-06-18T20:16:18.935Z,5.53
2017-06-18T20:18:47.663Z,3.80
2017-06-18T20:21:15.633Z,5.73
2017-06-18T20:23:43.352Z,3.67
2017-06-18T20:26:11.301Z,6.27
2017-06-18T20:28:39.544Z,5.87
2017-06-18T20:31:07.023Z,4.20
2017-06-18T20:33:34.678Z,4.70
2017-06-18T20:36:02.151Z,8.40
2017-06-18T20:38:29.626Z,5.03
2017-06-18T20:40:57.190Z,4.70
2017-06-18T20:46:00.632Z,3.90
2017-06-18T20:48:28.703Z,5.97
2017-06-18T20:50:56.178Z,5.30
2017-06-18T20:53:23.863Z,3.67
2017-06-18T20:55:52.528Z,5.13
2017-06-18T20:58:21.162Z,3.63
2017-06-18T21:00:48.760Z,3.33
2017-06-18T21:03:16.258Z,4.00
2017-06-18T21:05:44.417Z,3.83
2017-06-18T21:08:12.595Z,4.57
2017-06-18T21:10:40.794Z,4.60
2017-06-18T21:13:08.336Z,5.20
2017-06-18T21:15:35.860Z,4.93
2017-06-18T21:18:03.323Z,5.10
2017-06-18T21:20:30.788Z,3.87
2017-06-18T21:22:58.254Z,5.23
2017-06-18T21:25:25.768Z,7.00
2017-06-18T21:27:53.236Z,4.20
2017-06-18T21:30:20.702Z,5.83
2017-06-18T21:32:48.236Z,5.43
2017-06-18T21:35:16.563Z,5.43
2017-06-18T21:37:44.354Z,6.10
2017-06-18T21:40:12.851Z,6.77
2017-06-18T21:42:40.820Z,8.53
2017-06-18T21:45:08.411Z,4.20
2017-06-18T21:47:35.877Z,3.67
2017-06-18T21:50:03.339Z,6.23
2017-06-18T21:52:30.804Z,5.67
2017-06-18T21:54:58.266Z,5.67
2017-06-18T21:57:25.734Z,4.37
2017-06-18T21:59:53.977Z,6.10
2017-06-18T22:02:21.464Z,5.33
2017-06-18T22:04:49.783Z,4.30
2017-06-18T22:07:17.234Z,3.87
2017-06-18T22:09:44.698Z,4.40
2017-06-18T22:12:12.184Z,4.63
2017-06-18T22:14:39.684Z,4.47
2017-06-18T22:17:07.161Z,5.20
2017-06-18T22:19:34.653Z,6.20
2017-06-18T22:22:02.132Z,4.63
2017-06-18T22:24:29.604Z,4.70
2017-06-18T22:26:57.067Z,4.43
2017-06-18T22:29:24.662Z,5.13
2017-06-18T22:31:52.117Z,4.40
2017-06-18T22:34:19.635Z,3.97
2017-06-18T22:36:47.206Z,4.40
2017-06-18T22:39:14.682Z,4.10
2017-06-18T22:41:42.157Z,7.37
2017-06-18T22:44:09.641Z,3.73
2017-06-18T22:46:37.114Z,5.10
2017-06-18T22:49:05.343Z,5.07
2017-06-18T22:51:32.802Z,3.87
2017-06-18T22:54:00.274Z,3.60
2017-06-18T22:56:27.722Z,5.50
2017-06-18T22:58:55.182Z,4.23
2017-06-18T23:01:22.638Z,4.40
2017-06-18T23:03:50.127Z,6.17
2017-06-18T23:06:18.346Z,3.50
2017-06-18T23:08:45.826Z,3.67
2017-06-18T23:11:13.283Z,4.63
2017-06-18T23:13:40.746Z,4.17
2017-06-18T23:16:08.211Z,3.70
2017-06-18T23:18:35.721Z,4.90
2017-06-18T23:21:03.177Z,5.87
2017-06-18T23:23:30.647Z,5.90
2017-06-18T23:25:58.107Z,4.10
2017-06-18T23:28:25.567Z,3.77
2017-06-18T23:30:53.043Z,4.17
2017-06-18T23:33:20.499Z,3.90
2017-06-18T23:35:47.975Z,4.03
2017-06-18T23:38:15.437Z,4.37
2017-06-18T23:40:42.911Z,5.23
2017-06-18T23:43:10.376Z,6.50
2017-06-18T23:45:37.834Z,4.67
2017-06-18T23:48:05.318Z,4.67
2017-06-18T23:50:32.897Z,4.60
2017-06-18T23:53:00.370Z,4.50
2017-06-18T23:55:27.819Z,4.43
2017-06-18T23:57:55.291Z,5.77
